In Rescue
 
Open Full Screen Window  High Contrast Mode
Wind Gusting 14 knots
09
May 20, 2019 1:28 PM CDT
Weather Information
Wind Direction
  100 °
Wind Speed
  09 kt (10 mph)
Wind Gust
  14 kt (16 mph)
Altimeter
30.14 in
Visibility
10 SM
Temperature
13° C
55° F
Dewpoint
01° C
34° F
Humidity
44%
1hr Rain Fall
00.00 in.
24hr Rain Fall
00.00 in.
Sky Condition
Clear
VFR

METAR KLYV 201828Z AUTO 10009G14KT 10SM CLR 13/01 A3014 RMK AO2

FAA Disclaimer: The data displayed is for advisory purposes only and is not to be used for flight planning or operations.